CheckWX is a tool to help pilots better visualize weather data.  It is not intended as a substitute for an official pre-flight weather briefing.

02:16:16 UTC

GVBA TAF
Rabil Airport
Rabil, Cape Verde
TAF GVBA 132300Z 1400/1506 08004KT 8000 FEW012 BKN016 BECMG 1409/1411 01010KT SCT015

Jul-14@
00:00 UTC

Jul-14 @ 00:00 UTC

Jul-14@
09:00 UTC

Jul-14 @ 09:00 UTC

TAF GVBA 132300Z 1400/1506 08004KT 8000 FEW012 BKN016

Expired

Wind
  • 080° at 4 KTS
Cloud Levels
  • Few at 1,200' AGL
  • Broken at 1,600' AGL

Jul-14@
09:00 UTC

Jul-14 @ 09:00 UTC

Jul-15@
06:00 UTC

Jul-15 @ 06:00 UTC

BECMG 1409/1411 01010KT SCT015

Becoming

Becoming Conditions expected by Tue, Jul 14, 2020 @ 11:00 UTC

Wind
  • 010° at 10 KTS
Cloud Levels
  • Scattered at 1,500' AGL